sensor_id;sensor_type;location;lat;lon;timestamp;pressure;altitude;pressure_sealevel;temperature;humidity
52653;BME280;39353;42.864;12.014;2023-12-29T04:25:44;98316.40;;;19.96;51.79
52653;BME280;39353;42.864;12.014;2023-12-29T04:28:10;98318.95;;;19.95;51.84
52653;BME280;39353;42.864;12.014;2023-12-29T04:30:36;98322.04;;;19.93;51.78
52653;BME280;39353;42.864;12.014;2023-12-29T04:33:02;98322.40;;;19.92;51.77
52653;BME280;39353;42.864;12.014;2023-12-29T04:35:28;98320.30;;;19.90;51.82
52653;BME280;39353;42.864;12.014;2023-12-29T04:37:54;98325.55;;;19.87;51.90
52653;BME280;39353;42.864;12.014;2023-12-29T04:40:20;98323.16;;;19.84;52.12
52653;BME280;39353;42.864;12.014;2023-12-29T04:42:46;98326.13;;;19.83;52.11
52653;BME280;39353;42.864;12.014;2023-12-29T04:45:12;98323.52;;;19.82;52.06
52653;BME280;39353;42.864;12.014;2023-12-29T04:47:38;98322.34;;;19.79;52.24
52653;BME280;39353;42.864;12.014;2023-12-29T04:50:05;98315.66;;;19.77;52.10
52653;BME280;39353;42.864;12.014;2023-12-29T04:52:32;98314.94;;;19.76;52.17
52653;BME280;39353;42.864;12.014;2023-12-29T04:54:58;98316.31;;;19.75;52.20
52653;BME280;39353;42.864;12.014;2023-12-29T04:57:24;98319.41;;;19.75;52.03
52653;BME280;39353;42.864;12.014;2023-12-29T04:59:50;98322.45;;;19.74;52.15
52653;BME280;39353;42.864;12.014;2023-12-29T05:02:16;98321.17;;;19.74;52.22
52653;BME280;39353;42.864;12.014;2023-12-29T05:04:42;98320.02;;;19.73;52.11
52653;BME280;39353;42.864;12.014;2023-12-29T05:07:09;98317.02;;;19.73;52.23
52653;BME280;39353;42.864;12.014;2023-12-29T05:09:35;98315.34;;;19.73;52.10
52653;BME280;39353;42.864;12.014;2023-12-29T05:12:01;98322.45;;;19.73;52.18
52653;BME280;39353;42.864;12.014;2023-12-29T05:14:27;98323.48;;;19.72;52.15
52653;BME280;39353;42.864;12.014;2023-12-29T05:16:54;98323.05;;;19.72;52.15
52653;BME280;39353;42.864;12.014;2023-12-29T05:19:20;98320.88;;;19.71;52.10
52653;BME280;39353;42.864;12.014;2023-12-29T05:21:45;98318.80;;;19.70;52.16
52653;BME280;39353;42.864;12.014;2023-12-29T05:24:11;98320.52;;;19.69;52.19
52653;BME280;39353;42.864;12.014;2023-12-29T05:26:37;98323.27;;;19.69;52.12
52653;BME280;39353;42.864;12.014;2023-12-29T05:29:03;98323.39;;;19.68;52.23
52653;BME280;39353;42.864;12.014;2023-12-29T05:31:29;98323.60;;;19.68;52.10
52653;BME280;39353;42.864;12.014;2023-12-29T05:33:56;98324.82;;;19.68;52.21
52653;BME280;39353;42.864;12.014;2023-12-29T05:36:22;98326.36;;;19.68;52.19
52653;BME280;39353;42.864;12.014;2023-12-29T05:38:48;98322.00;;;19.68;52.32
52653;BME280;39353;42.864;12.014;2023-12-29T05:41:14;98321.00;;;19.67;52.18
52653;BME280;39353;42.864;12.014;2023-12-29T05:43:40;98319.31;;;19.66;52.17
52653;BME280;39353;42.864;12.014;2023-12-29T05:46:12;98316.13;;;19.66;52.25
52653;BME280;39353;42.864;12.014;2023-12-29T05:48:39;98312.95;;;19.65;52.27
52653;BME280;39353;42.864;12.014;2023-12-29T05:51:09;98314.06;;;19.64;52.23
52653;BME280;39353;42.864;12.014;2023-12-29T05:53:36;98311.13;;;19.63;52.24
52653;BME280;39353;42.864;12.014;2023-12-29T05:56:02;98311.45;;;19.62;52.24
52653;BME280;39353;42.864;12.014;2023-12-29T05:58:28;98311.13;;;19.62;52.18
52653;BME280;39353;42.864;12.014;2023-12-29T06:00:54;98310.52;;;19.61;52.18
52653;BME280;39353;42.864;12.014;2023-12-29T06:03:21;98307.20;;;19.60;52.22
52653;BME280;39353;42.864;12.014;2023-12-29T06:05:47;98310.48;;;19.60;52.24
52653;BME280;39353;42.864;12.014;2023-12-29T06:08:13;98308.52;;;19.61;52.27
52653;BME280;39353;42.864;12.014;2023-12-29T06:10:39;98311.02;;;19.61;52.18
52653;BME280;39353;42.864;12.014;2023-12-29T06:13:05;98307.71;;;19.60;52.24
52653;BME280;39353;42.864;12.014;2023-12-29T06:15:31;98302.09;;;19.60;52.16
52653;BME280;39353;42.864;12.014;2023-12-29T06:17:57;98301.92;;;19.60;52.05
52653;BME280;39353;42.864;12.014;2023-12-29T06:20:24;98302.27;;;19.60;52.18
52653;BME280;39353;42.864;12.014;2023-12-29T06:22:50;98301.34;;;19.60;52.09
52653;BME280;39353;42.864;12.014;2023-12-29T06:25:17;98301.77;;;19.60;52.08
52653;BME280;39353;42.864;12.014;2023-12-29T06:27:43;98298.95;;;19.59;52.10
52653;BME280;39353;42.864;12.014;2023-12-29T06:30:10;98298.95;;;19.58;52.06
52653;BME280;39353;42.864;12.014;2023-12-29T06:32:36;98299.91;;;19.57;52.10
52653;BME280;39353;42.864;12.014;2023-12-29T06:35:03;98304.83;;;19.57;52.17
52653;BME280;39353;42.864;12.014;2023-12-29T06:37:30;98304.87;;;19.56;52.25
52653;BME280;39353;42.864;12.014;2023-12-29T06:39:56;98301.23;;;19.56;52.21
52653;BME280;39353;42.864;12.014;2023-12-29T06:42:22;98299.77;;;19.56;52.28
52653;BME280;39353;42.864;12.014;2023-12-29T06:44:48;98296.81;;;19.55;52.33
52653;BME280;39353;42.864;12.014;2023-12-29T06:47:14;98295.93;;;19.55;52.29
52653;BME280;39353;42.864;12.014;2023-12-29T06:49:40;98294.84;;;19.55;52.19
52653;BME280;39353;42.864;12.014;2023-12-29T06:52:07;98295.35;;;19.54;52.25
52653;BME280;39353;42.864;12.014;2023-12-29T06:54:33;98293.80;;;19.53;52.17
52653;BME280;39353;42.864;12.014;2023-12-29T06:57:00;98291.10;;;19.53;52.37
52653;BME280;39353;42.864;12.014;2023-12-29T06:59:26;98295.52;;;19.54;52.23
52653;BME280;39353;42.864;12.014;2023-12-29T07:01:52;98296.55;;;19.53;52.26
52653;BME280;39353;42.864;12.014;2023-12-29T07:04:18;98301.36;;;19.52;52.21
52653;BME280;39353;42.864;12.014;2023-12-29T07:06:44;98298.93;;;19.51;52.27
52653;BME280;39353;42.864;12.014;2023-12-29T07:09:09;98302.56;;;19.51;52.29
52653;BME280;39353;42.864;12.014;2023-12-29T07:11:36;98303.48;;;19.51;52.13
52653;BME280;39353;42.864;12.014;2023-12-29T07:14:02;98300.51;;;19.50;52.29
52653;BME280;39353;42.864;12.014;2023-12-29T07:16:28;98301.30;;;19.49;52.29
52653;BME280;39353;42.864;12.014;2023-12-29T07:18:55;98305.36;;;19.48;52.24
52653;BME280;39353;42.864;12.014;2023-12-29T07:21:21;98305.81;;;19.48;52.23
52653;BME280;39353;42.864;12.014;2023-12-29T07:23:47;98305.85;;;19.48;52.20
52653;BME280;39353;42.864;12.014;2023-12-29T07:26:12;98307.52;;;19.47;52.17
52653;BME280;39353;42.864;12.014;2023-12-29T07:28:38;98308.48;;;19.47;52.22
52653;BME280;39353;42.864;12.014;2023-12-29T07:31:05;98310.55;;;19.46;52.16
52653;BME280;39353;42.864;12.014;2023-12-29T07:33:31;98311.14;;;19.46;52.14
52653;BME280;39353;42.864;12.014;2023-12-29T07:35:57;98316.88;;;19.47;52.05
52653;BME280;39353;42.864;12.014;2023-12-29T07:38:24;98316.02;;;19.46;52.06
52653;BME280;39353;42.864;12.014;2023-12-29T07:40:50;98320.33;;;19.45;52.05
52653;BME280;39353;42.864;12.014;2023-12-29T07:43:16;98319.16;;;19.44;52.17
52653;BME280;39353;42.864;12.014;2023-12-29T07:45:42;98315.84;;;19.44;52.16
52653;BME280;39353;42.864;12.014;2023-12-29T07:48:09;98319.45;;;19.43;52.16
52653;BME280;39353;42.864;12.014;2023-12-29T07:50:35;98319.81;;;19.44;52.21
52653;BME280;39353;42.864;12.014;2023-12-29T07:53:01;98321.52;;;19.43;52.25
52653;BME280;39353;42.864;12.014;2023-12-29T07:55:30;98325.39;;;19.42;52.18
52653;BME280;39353;42.864;12.014;2023-12-29T07:57:56;98324.95;;;19.42;52.30
52653;BME280;39353;42.864;12.014;2023-12-29T08:00:22;98327.42;;;19.42;52.21
52653;BME280;39353;42.864;12.014;2023-12-29T08:02:49;98328.77;;;19.42;52.36
52653;BME280;39353;42.864;12.014;2023-12-29T08:05:16;98336.67;;;19.41;52.25
52653;BME280;39353;42.864;12.014;2023-12-29T08:07:42;98341.95;;;19.41;52.31
52653;BME280;39353;42.864;12.014;2023-12-29T08:10:09;98345.95;;;19.41;52.40
52653;BME280;39353;42.864;12.014;2023-12-29T08:12:36;98349.69;;;19.40;52.32
52653;BME280;39353;42.864;12.014;2023-12-29T08:15:02;98348.84;;;19.39;52.42
52653;BME280;39353;42.864;12.014;2023-12-29T08:17:28;98346.29;;;19.39;52.32
52653;BME280;39353;42.864;12.014;2023-12-29T08:19:54;98351.83;;;19.39;52.43
52653;BME280;39353;42.864;12.014;2023-12-29T08:22:21;98348.20;;;19.39;52.52
52653;BME280;39353;42.864;12.014;2023-12-29T08:24:47;98345.41;;;19.39;52.33
52653;BME280;39353;42.864;12.014;2023-12-29T08:27:14;98347.23;;;19.38;51.99
52653;BME280;39353;42.864;12.014;2023-12-29T08:29:40;98350.23;;;19.37;52.08
52653;BME280;39353;42.864;12.014;2023-12-29T08:32:07;98351.61;;;19.38;52.03
52653;BME280;39353;42.864;12.014;2023-12-29T08:34:33;98358.28;;;19.38;51.99
52653;BME280;39353;42.864;12.014;2023-12-29T08:37:03;98360.83;;;19.38;52.12
52653;BME280;39353;42.864;12.014;2023-12-29T08:39:29;98360.91;;;19.37;51.86
52653;BME280;39353;42.864;12.014;2023-12-29T08:41:55;98360.27;;;19.36;51.98
52653;BME280;39353;42.864;12.014;2023-12-29T08:44:21;98361.29;;;19.37;52.25
52653;BME280;39353;42.864;12.014;2023-12-29T08:46:47;98357.73;;;19.38;52.16
52653;BME280;39353;42.864;12.014;2023-12-29T08:49:13;98356.45;;;19.39;52.32
52653;BME280;39353;42.864;12.014;2023-12-29T08:51:39;98360.14;;;19.40;52.35
52653;BME280;39353;42.864;12.014;2023-12-29T08:54:05;98361.33;;;19.41;52.42
52653;BME280;39353;42.864;12.014;2023-12-29T08:56:31;98361.95;;;19.43;52.57
52653;BME280;39353;42.864;12.014;2023-12-29T08:58:57;98357.91;;;19.44;52.64
52653;BME280;39353;42.864;12.014;2023-12-29T09:01:23;98358.52;;;19.44;52.52
52653;BME280;39353;42.864;12.014;2023-12-29T09:03:49;98360.45;;;19.45;52.71
52653;BME280;39353;42.864;12.014;2023-12-29T09:06:15;98361.20;;;19.45;52.61
52653;BME280;39353;42.864;12.014;2023-12-29T09:08:41;98361.33;;;19.45;52.57
52653;BME280;39353;42.864;12.014;2023-12-29T09:11:07;98365.09;;;19.44;52.68
52653;BME280;39353;42.864;12.014;2023-12-29T09:13:33;98367.51;;;19.44;52.82
52653;BME280;39353;42.864;12.014;2023-12-29T09:15:59;98369.39;;;19.43;52.69
52653;BME280;39353;42.864;12.014;2023-12-29T09:18:25;98367.67;;;19.44;52.67
52653;BME280;39353;42.864;12.014;2023-12-29T09:20:51;98368.08;;;19.45;52.64
52653;BME280;39353;42.864;12.014;2023-12-29T09:23:17;98372.27;;;19.46;52.24
52653;BME280;39353;42.864;12.014;2023-12-29T09:25:43;98375.85;;;19.45;51.93
52653;BME280;39353;42.864;12.014;2023-12-29T09:28:09;98375.23;;;19.46;52.04
52653;BME280;39353;42.864;12.014;2023-12-29T09:30:35;98377.58;;;19.47;51.92
52653;BME280;39353;42.864;12.014;2023-12-29T09:33:01;98373.85;;;19.46;51.47
52653;BME280;39353;42.864;12.014;2023-12-29T09:35:27;98371.84;;;19.45;51.21
52653;BME280;39353;42.864;12.014;2023-12-29T09:37:53;98373.77;;;19.46;51.34
52653;BME280;39353;42.864;12.014;2023-12-29T09:40:19;98374.29;;;19.46;51.29
52653;BME280;39353;42.864;12.014;2023-12-29T09:42:47;98379.30;;;19.46;51.30
52653;BME280;39353;42.864;12.014;2023-12-29T09:45:22;98377.52;;;19.45;51.23
52653;BME280;39353;42.864;12.014;2023-12-29T09:47:51;98379.66;;;19.45;51.42
52653;BME280;39353;42.864;12.014;2023-12-29T09:50:19;98375.77;;;19.44;51.37
52653;BME280;39353;42.864;12.014;2023-12-29T09:52:48;98372.27;;;19.43;51.16
52653;BME280;39353;42.864;12.014;2023-12-29T09:55:15;98366.58;;;19.42;51.04
52653;BME280;39353;42.864;12.014;2023-12-29T09:57:42;98367.20;;;19.42;51.03
52653;BME280;39353;42.864;12.014;2023-12-29T10:02:57;98363.69;;;19.38;50.90
52653;BME280;39353;42.864;12.014;2023-12-29T10:05:24;98363.85;;;19.38;50.42
52653;BME280;39353;42.864;12.014;2023-12-29T10:07:52;98364.27;;;19.39;50.77
52653;BME280;39353;42.864;12.014;2023-12-29T10:10:20;98360.47;;;19.39;50.60
52653;BME280;39353;42.864;12.014;2023-12-29T10:12:50;98356.23;;;19.40;50.64
52653;BME280;39353;42.864;12.014;2023-12-29T10:15:31;98356.33;;;19.40;50.71
52653;BME280;39353;42.864;12.014;2023-12-29T10:18:14;98349.69;;;19.41;50.75
52653;BME280;39353;42.864;12.014;2023-12-29T10:23:36;98346.22;;;19.41;50.97
52653;BME280;39353;42.864;12.014;2023-12-29T10:26:03;98344.64;;;19.44;50.97
52653;BME280;39353;42.864;12.014;2023-12-29T10:28:29;98340.65;;;19.45;50.95
52653;BME280;39353;42.864;12.014;2023-12-29T10:30:55;98337.68;;;19.47;50.96
52653;BME280;39353;42.864;12.014;2023-12-29T10:33:21;98336.38;;;19.47;50.79
52653;BME280;39353;42.864;12.014;2023-12-29T10:35:58;98331.83;;;19.33;49.01
52653;BME280;39353;42.864;12.014;2023-12-29T10:38:29;98329.89;;;19.29;49.79
52653;BME280;39353;42.864;12.014;2023-12-29T10:43:36;98317.35;;;19.29;50.07
52653;BME280;39353;42.864;12.014;2023-12-29T10:46:06;98315.11;;;19.28;49.61
52653;BME280;39353;42.864;12.014;2023-12-29T10:48:36;98313.89;;;19.27;49.75
52653;BME280;39353;42.864;12.014;2023-12-29T10:51:03;98306.42;;;19.28;49.81
52653;BME280;39353;42.864;12.014;2023-12-29T10:53:33;98305.00;;;19.29;49.90
52653;BME280;39353;42.864;12.014;2023-12-29T10:56:00;98300.77;;;19.29;50.22
52653;BME280;39353;42.864;12.014;2023-12-29T10:58:27;98296.25;;;19.31;50.52
52653;BME280;39353;42.864;12.014;2023-12-29T11:00:58;98291.63;;;19.31;50.37
52653;BME280;39353;42.864;12.014;2023-12-29T11:03:27;98289.19;;;19.32;50.75
52653;BME280;39353;42.864;12.014;2023-12-29T11:06:01;98283.46;;;19.33;50.17
52653;BME280;39353;42.864;12.014;2023-12-29T11:08:29;98277.63;;;19.20;47.53
52653;BME280;39353;42.864;12.014;2023-12-29T11:10:55;98279.24;;;19.13;48.35
52653;BME280;39353;42.864;12.014;2023-12-29T11:13:21;98278.36;;;19.13;49.04
52653;BME280;39353;42.864;12.014;2023-12-29T11:15:47;98274.70;;;19.14;49.72
52653;BME280;39353;42.864;12.014;2023-12-29T11:18:15;98270.03;;;19.17;49.87
52653;BME280;39353;42.864;12.014;2023-12-29T11:20:44;98272.15;;;19.21;50.20
52653;BME280;39353;42.864;12.014;2023-12-29T11:23:11;98269.80;;;19.22;50.31
52653;BME280;39353;42.864;12.014;2023-12-29T11:25:41;98263.63;;;19.23;50.47
52653;BME280;39353;42.864;12.014;2023-12-29T11:28:11;98262.55;;;19.25;50.46
52653;BME280;39353;42.864;12.014;2023-12-29T11:30:40;98260.89;;;19.25;50.55
52653;BME280;39353;42.864;12.014;2023-12-29T11:33:20;98260.14;;;19.26;50.46
52653;BME280;39353;42.864;12.014;2023-12-29T11:36:08;98259.35;;;19.27;50.49
52653;BME280;39353;42.864;12.014;2023-12-29T11:39:21;98256.59;;;19.27;50.63
52653;BME280;39353;42.864;12.014;2023-12-29T11:42:19;98254.95;;;19.27;50.68
52653;BME280;39353;42.864;12.014;2023-12-29T11:44:46;98250.02;;;19.27;50.78
52653;BME280;39353;42.864;12.014;2023-12-29T11:47:37;98248.55;;;19.28;50.73
52653;BME280;39353;42.864;12.014;2023-12-29T11:50:03;98248.40;;;19.29;50.82
52653;BME280;39353;42.864;12.014;2023-12-29T11:52:37;98245.71;;;19.29;50.91
52653;BME280;39353;42.864;12.014;2023-12-29T11:55:14;98241.01;;;19.27;50.49
52653;BME280;39353;42.864;12.014;2023-12-29T11:57:44;98239.02;;;19.24;50.30
52653;BME280;39353;42.864;12.014;2023-12-29T12:00:11;98241.00;;;19.26;50.47
52653;BME280;39353;42.864;12.014;2023-12-29T12:02:38;98240.30;;;19.27;50.53
52653;BME280;39353;42.864;12.014;2023-12-29T12:05:04;98236.80;;;19.29;50.67
52653;BME280;39353;42.864;12.014;2023-12-29T12:12:47;98238.25;;;19.42;51.39
52653;BME280;39353;42.864;12.014;2023-12-29T12:17:52;98227.88;;;19.48;52.30
52653;BME280;39353;42.864;12.014;2023-12-29T12:20:18;98225.06;;;19.53;52.86
52653;BME280;39353;42.864;12.014;2023-12-29T12:22:51;98223.92;;;19.56;53.88
52653;BME280;39353;42.864;12.014;2023-12-29T12:25:25;98219.46;;;19.59;54.42
52653;BME280;39353;42.864;12.014;2023-12-29T12:27:54;98217.69;;;19.64;54.93
52653;BME280;39353;42.864;12.014;2023-12-29T12:30:20;98208.59;;;19.68;55.67
52653;BME280;39353;42.864;12.014;2023-12-29T12:32:57;98208.68;;;19.70;56.00
52653;BME280;39353;42.864;12.014;2023-12-29T12:35:23;98202.86;;;19.72;57.09
52653;BME280;39353;42.864;12.014;2023-12-29T12:40:36;98197.70;;;19.78;57.83
52653;BME280;39353;42.864;12.014;2023-12-29T12:43:04;98196.59;;;19.80;58.16
52653;BME280;39353;42.864;12.014;2023-12-29T12:45:40;98192.01;;;19.81;57.86
52653;BME280;39353;42.864;12.014;2023-12-29T12:48:21;98193.02;;;19.78;57.59
52653;BME280;39353;42.864;12.014;2023-12-29T12:50:49;98197.64;;;19.76;57.41
52653;BME280;39353;42.864;12.014;2023-12-29T12:53:15;98201.48;;;19.75;57.21
52653;BME280;39353;42.864;12.014;2023-12-29T12:55:50;98197.59;;;19.74;57.52
52653;BME280;39353;42.864;12.014;2023-12-29T12:58:18;98200.52;;;19.74;57.02
52653;BME280;39353;42.864;12.014;2023-12-29T13:00:47;98195.07;;;19.74;56.85
52653;BME280;39353;42.864;12.014;2023-12-29T13:03:15;98191.35;;;19.74;56.51
52653;BME280;39353;42.864;12.014;2023-12-29T13:05:42;98192.94;;;19.75;56.19
52653;BME280;39353;42.864;12.014;2023-12-29T13:08:09;98191.77;;;19.74;56.14
52653;BME280;39353;42.864;12.014;2023-12-29T13:10:41;98190.67;;;19.74;56.11
52653;BME280;39353;42.864;12.014;2023-12-29T13:13:09;98187.46;;;19.75;56.51
52653;BME280;39353;42.864;12.014;2023-12-29T13:15:53;98185.13;;;19.76;56.54
52653;BME280;39353;42.864;12.014;2023-12-29T13:18:28;98184.45;;;19.78;56.91
52653;BME280;39353;42.864;12.014;2023-12-29T13:20:55;98186.55;;;19.81;57.42
52653;BME280;39353;42.864;12.014;2023-12-29T13:23:25;98187.74;;;19.83;57.32
52653;BME280;39353;42.864;12.014;2023-12-29T13:25:57;98185.79;;;19.85;57.76
52653;BME280;39353;42.864;12.014;2023-12-29T13:28:23;98188.16;;;19.88;58.31
52653;BME280;39353;42.864;12.014;2023-12-29T13:30:51;98184.34;;;19.91;58.71
52653;BME280;39353;42.864;12.014;2023-12-29T13:33:50;98180.36;;;19.93;58.75
52653;BME280;39353;42.864;12.014;2023-12-29T13:36:38;98175.77;;;19.97;59.66
52653;BME280;39353;42.864;12.014;2023-12-29T13:42:00;98171.95;;;20.02;59.39
52653;BME280;39353;42.864;12.014;2023-12-29T13:44:29;98171.89;;;20.03;58.89
52653;BME280;39353;42.864;12.014;2023-12-29T13:46:56;98169.30;;;20.03;58.49
52653;BME280;39353;42.864;12.014;2023-12-29T13:49:23;98167.83;;;20.03;58.35
52653;BME280;39353;42.864;12.014;2023-12-29T13:51:49;98163.29;;;20.02;57.90
52653;BME280;39353;42.864;12.014;2023-12-29T13:54:16;98164.55;;;19.99;57.55
52653;BME280;39353;42.864;12.014;2023-12-29T13:56:52;98161.81;;;19.94;57.16
52653;BME280;39353;42.864;12.014;2023-12-29T13:59:28;98159.15;;;19.89;56.96
52653;BME280;39353;42.864;12.014;2023-12-29T14:01:59;98160.83;;;19.86;56.69
52653;BME280;39353;42.864;12.014;2023-12-29T14:04:25;98157.77;;;19.83;56.60
52653;BME280;39353;42.864;12.014;2023-12-29T14:07:00;98158.62;;;19.81;56.46
52653;BME280;39353;42.864;12.014;2023-12-29T14:09:27;98157.36;;;19.79;56.29
52653;BME280;39353;42.864;12.014;2023-12-29T14:11:53;98154.95;;;19.77;55.97
52653;BME280;39353;42.864;12.014;2023-12-29T14:14:23;98151.64;;;19.76;55.80
52653;BME280;39353;42.864;12.014;2023-12-29T14:16:52;98153.41;;;19.77;55.71
52653;BME280;39353;42.864;12.014;2023-12-29T14:19:18;98153.95;;;19.76;55.41
52653;BME280;39353;42.864;12.014;2023-12-29T14:21:51;98152.02;;;19.75;55.30
52653;BME280;39353;42.864;12.014;2023-12-29T14:24:18;98152.56;;;19.75;55.13
52653;BME280;39353;42.864;12.014;2023-12-29T14:26:55;98152.63;;;19.74;54.88
52653;BME280;39353;42.864;12.014;2023-12-29T14:29:22;98154.48;;;19.74;55.01
52653;BME280;39353;42.864;12.014;2023-12-29T14:31:50;98156.54;;;19.74;54.77
52653;BME280;39353;42.864;12.014;2023-12-29T14:34:21;98150.08;;;19.73;54.71
52653;BME280;39353;42.864;12.014;2023-12-29T14:36:47;98155.10;;;19.72;54.56
52653;BME280;39353;42.864;12.014;2023-12-29T14:39:14;98154.36;;;19.73;54.58
52653;BME280;39353;42.864;12.014;2023-12-29T14:41:41;98151.22;;;19.72;54.32
52653;BME280;39353;42.864;12.014;2023-12-29T14:44:07;98153.40;;;19.72;54.15
52653;BME280;39353;42.864;12.014;2023-12-29T14:46:35;98150.21;;;19.72;53.65
52653;BME280;39353;42.864;12.014;2023-12-29T14:49:02;98148.83;;;19.73;53.41
52653;BME280;39353;42.864;12.014;2023-12-29T14:51:28;98146.20;;;19.73;53.19
52653;BME280;39353;42.864;12.014;2023-12-29T14:53:54;98141.08;;;19.73;53.14
52653;BME280;39353;42.864;12.014;2023-12-29T14:56:20;98143.67;;;19.73;53.17
52653;BME280;39353;42.864;12.014;2023-12-29T14:58:46;98141.13;;;19.71;53.07
52653;BME280;39353;42.864;12.014;2023-12-29T15:01:12;98139.05;;;19.70;52.89
52653;BME280;39353;42.864;12.014;2023-12-29T15:39:43;98129.01;;;19.82;52.27
52653;BME280;39353;42.864;12.014;2023-12-29T15:42:12;98128.75;;;19.80;52.45
52653;BME280;39353;42.864;12.014;2023-12-29T15:44:40;98133.15;;;19.81;52.23
52653;BME280;39353;42.864;12.014;2023-12-29T15:47:09;98134.23;;;19.79;52.26
52653;BME280;39353;42.864;12.014;2023-12-29T15:49:37;98132.44;;;19.81;52.19
52653;BME280;39353;42.864;12.014;2023-12-29T15:52:05;98129.72;;;19.84;52.08
52653;BME280;39353;42.864;12.014;2023-12-29T15:54:32;98130.52;;;19.89;52.05
52653;BME280;39353;42.864;12.014;2023-12-29T15:57:00;98131.46;;;19.93;51.60
52653;BME280;39353;42.864;12.014;2023-12-29T15:59:27;98131.31;;;19.98;51.70
52653;BME280;39353;42.864;12.014;2023-12-29T16:01:53;98132.32;;;20.02;51.59
52653;BME280;39353;42.864;12.014;2023-12-29T16:04:20;98132.46;;;20.05;51.54
52653;BME280;39353;42.864;12.014;2023-12-29T16:06:48;98136.45;;;20.08;51.45
52653;BME280;39353;42.864;12.014;2023-12-29T16:09:15;98138.77;;;20.13;51.36
52653;BME280;39353;42.864;12.014;2023-12-29T16:11:42;98134.80;;;20.17;51.23
52653;BME280;39353;42.864;12.014;2023-12-29T16:14:10;98131.33;;;20.22;51.31
52653;BME280;39353;42.864;12.014;2023-12-29T16:16:38;98124.33;;;20.28;51.18
52653;BME280;39353;42.864;12.014;2023-12-29T16:19:05;98126.02;;;20.33;51.25
52653;BME280;39353;42.864;12.014;2023-12-29T16:21:36;98125.79;;;20.38;51.08
52653;BME280;39353;42.864;12.014;2023-12-29T16:24:12;98122.34;;;20.44;51.08
52653;BME280;39353;42.864;12.014;2023-12-29T16:26:41;98121.55;;;20.48;51.22
52653;BME280;39353;42.864;12.014;2023-12-29T16:29:09;98122.48;;;20.52;51.01
52653;BME280;39353;42.864;12.014;2023-12-29T16:31:35;98124.73;;;20.54;50.92
52653;BME280;39353;42.864;12.014;2023-12-29T16:34:05;98123.32;;;20.55;50.55
52653;BME280;39353;42.864;12.014;2023-12-29T16:36:37;98120.42;;;20.58;50.64
52653;BME280;39353;42.864;12.014;2023-12-29T16:39:10;98123.98;;;20.61;50.72
52653;BME280;39353;42.864;12.014;2023-12-29T16:41:37;98123.86;;;20.63;50.80
52653;BME280;39353;42.864;12.014;2023-12-29T16:44:06;98127.94;;;20.64;50.82
52653;BME280;39353;42.864;12.014;2023-12-29T16:46:35;98121.85;;;20.65;50.81
52653;BME280;39353;42.864;12.014;2023-12-29T16:49:04;98126.46;;;20.67;50.64
52653;BME280;39353;42.864;12.014;2023-12-29T16:51:31;98124.54;;;20.66;50.59
52653;BME280;39353;42.864;12.014;2023-12-29T16:53:58;98127.68;;;20.67;50.40
52653;BME280;39353;42.864;12.014;2023-12-29T16:56:25;98123.74;;;20.68;50.32
52653;BME280;39353;42.864;12.014;2023-12-29T16:58:52;98122.36;;;20.68;50.19
52653;BME280;39353;42.864;12.014;2023-12-29T17:01:21;98120.55;;;20.70;50.20
52653;BME280;39353;42.864;12.014;2023-12-29T17:03:49;98122.28;;;20.73;50.28
52653;BME280;39353;42.864;12.014;2023-12-29T17:06:17;98121.48;;;20.74;50.35
52653;BME280;39353;42.864;12.014;2023-12-29T17:08:44;98120.45;;;20.75;50.31
52653;BME280;39353;42.864;12.014;2023-12-29T17:11:13;98123.87;;;20.78;50.30
52653;BME280;39353;42.864;12.014;2023-12-29T17:13:40;98122.73;;;20.80;50.44
52653;BME280;39353;42.864;12.014;2023-12-29T17:16:08;98126.29;;;20.82;50.28
52653;BME280;39353;42.864;12.014;2023-12-29T17:18:34;98126.78;;;20.83;50.22
52653;BME280;39353;42.864;12.014;2023-12-29T17:21:12;98127.88;;;20.83;50.20
52653;BME280;39353;42.864;12.014;2023-12-29T17:23:44;98133.20;;;20.86;50.09
52653;BME280;39353;42.864;12.014;2023-12-29T17:26:14;98136.65;;;20.86;50.21
52653;BME280;39353;42.864;12.014;2023-12-29T17:28:42;98134.42;;;20.85;50.18
52653;BME280;39353;42.864;12.014;2023-12-29T17:31:11;98138.65;;;20.84;50.24
52653;BME280;39353;42.864;12.014;2023-12-29T17:33:39;98139.21;;;20.83;50.21
52653;BME280;39353;42.864;12.014;2023-12-29T17:36:09;98142.60;;;20.82;50.34
52653;BME280;39353;42.864;12.014;2023-12-29T17:38:37;98143.40;;;20.83;50.39
52653;BME280;39353;42.864;12.014;2023-12-29T17:41:05;98141.21;;;20.83;50.52
52653;BME280;39353;42.864;12.014;2023-12-29T17:43:32;98142.10;;;20.85;50.58
52653;BME280;39353;42.864;12.014;2023-12-29T17:46:03;98139.88;;;20.85;50.55
52653;BME280;39353;42.864;12.014;2023-12-29T17:48:34;98139.38;;;20.85;50.39
52653;BME280;39353;42.864;12.014;2023-12-29T17:51:00;98139.96;;;20.86;50.58
52653;BME280;39353;42.864;12.014;2023-12-29T17:53:28;98139.08;;;20.87;50.57
52653;BME280;39353;42.864;12.014;2023-12-29T17:55:57;98134.52;;;20.87;50.52
52653;BME280;39353;42.864;12.014;2023-12-29T17:58:24;98137.98;;;20.89;50.59
52653;BME280;39353;42.864;12.014;2023-12-29T18:00:53;98140.84;;;20.90;50.57
52653;BME280;39353;42.864;12.014;2023-12-29T18:03:20;98137.62;;;20.91;50.57
52653;BME280;39353;42.864;12.014;2023-12-29T18:05:47;98135.59;;;20.91;50.62
52653;BME280;39353;42.864;12.014;2023-12-29T18:08:17;98138.59;;;20.90;50.63
52653;BME280;39353;42.864;12.014;2023-12-29T18:10:49;98136.56;;;20.89;50.59
52653;BME280;39353;42.864;12.014;2023-12-29T18:13:15;98134.84;;;20.87;50.71
52653;BME280;39353;42.864;12.014;2023-12-29T18:15:45;98136.52;;;20.85;50.71
52653;BME280;39353;42.864;12.014;2023-12-29T18:18:12;98133.20;;;20.84;50.76